createdAt,value
2022-07-29T00:02:25.182Z,100764.13
2022-07-29T00:04:51.561Z,100763.22
2022-07-29T00:07:17.916Z,100765.03
2022-07-29T00:09:51.696Z,100756.03
2022-07-29T00:12:26.561Z,100754.56
2022-07-29T00:14:57.312Z,100751.69
2022-07-29T00:17:24.883Z,100758.28
2022-07-29T00:19:51.379Z,100761.13
2022-07-29T00:22:17.777Z,100742.13
2022-07-29T00:24:44.130Z,100738.78
2022-07-29T00:27:10.545Z,100740.06
2022-07-29T00:29:36.939Z,100727.00
2022-07-29T00:32:03.873Z,100727.38
2022-07-29T00:34:30.808Z,100728.31
2022-07-29T00:36:57.862Z,100723.75
2022-07-29T00:39:24.386Z,100718.69
2022-07-29T00:41:51.279Z,100714.72
2022-07-29T00:44:17.752Z,100714.34
2022-07-29T00:46:44.363Z,100711.31
2022-07-29T00:49:10.924Z,100713.84
2022-07-29T00:51:38.214Z,100713.06
2022-07-29T00:54:06.005Z,100716.78
2022-07-29T00:56:33.550Z,100710.38
2022-07-29T00:59:00.783Z,100704.53
2022-07-29T01:01:28.057Z,100705.75
2022-07-29T01:03:54.531Z,100706.84
2022-07-29T01:06:21.229Z,100704.47
2022-07-29T01:08:49.015Z,100690.22
2022-07-29T01:11:16.898Z,100693.03
2022-07-29T01:13:45.258Z,100690.78
2022-07-29T01:16:18.963Z,100689.00
2022-07-29T01:18:48.078Z,100690.28
2022-07-29T01:21:49.529Z,100686.31
2022-07-29T01:24:25.088Z,100695.22
2022-07-29T01:27:19.465Z,100689.66
2022-07-29T01:29:54.936Z,100693.44
2022-07-29T01:32:28.833Z,100697.56
2022-07-29T01:35:05.312Z,100691.44
2022-07-29T01:38:02.104Z,100682.28
2022-07-29T01:40:35.294Z,100678.50
2022-07-29T01:43:10.142Z,100683.81
2022-07-29T01:45:59.776Z,100679.22
2022-07-29T01:48:39.879Z,100683.38
2022-07-29T01:51:13.747Z,100669.81
2022-07-29T01:53:48.688Z,100676.47
2022-07-29T01:56:17.806Z,100666.50
2022-07-29T01:58:46.375Z,100659.41
2022-07-29T02:01:14.304Z,100654.56
2022-07-29T02:03:45.658Z,100655.53
2022-07-29T02:06:13.335Z,100647.63
2022-07-29T02:08:40.544Z,100648.34
2022-07-29T02:11:09.211Z,100649.94
2022-07-29T02:13:37.758Z,100648.16
2022-07-29T02:16:07.511Z,100647.47
2022-07-29T02:18:36.767Z,100639.09
2022-07-29T02:21:04.304Z,100634.66
2022-07-29T02:23:31.952Z,100633.94
2022-07-29T02:26:20.244Z,100621.44
2022-07-29T02:28:48.200Z,100629.91
2022-07-29T02:31:15.346Z,100626.47
2022-07-29T02:33:42.708Z,100629.88
2022-07-29T02:36:09.827Z,100633.34
2022-07-29T02:38:37.071Z,100634.19
2022-07-29T02:41:08.734Z,100626.63
2022-07-29T02:43:36.609Z,100630.72
2022-07-29T02:46:06.695Z,100643.66
2022-07-29T02:48:59.189Z,100647.13
2022-07-29T02:51:44.006Z,100650.22
2022-07-29T02:54:15.573Z,100651.16
2022-07-29T02:56:45.191Z,100647.31
2022-07-29T02:59:14.875Z,100636.25
2022-07-29T03:01:43.752Z,100623.94
2022-07-29T03:04:12.550Z,100617.56
2022-07-29T03:06:41.149Z,100613.59
2022-07-29T03:09:12.966Z,100618.03
2022-07-29T03:11:46.275Z,100632.59
2022-07-29T03:14:18.458Z,100634.03
2022-07-29T03:16:45.859Z,100630.22
2022-07-29T03:19:12.349Z,100622.31
2022-07-29T03:21:38.717Z,100627.75
2022-07-29T03:24:10.098Z,100638.78
2022-07-29T03:26:37.036Z,100652.69
2022-07-29T03:29:03.383Z,100643.84
2022-07-29T03:31:29.808Z,100642.06
2022-07-29T03:33:56.238Z,100641.50
2022-07-29T03:36:22.562Z,100643.47
2022-07-29T03:38:50.031Z,100642.72
2022-07-29T03:41:18.120Z,100644.00
2022-07-29T03:43:50.672Z,100646.25
2022-07-29T03:46:18.684Z,100640.63
2022-07-29T03:48:51.490Z,100637.09
2022-07-29T03:51:17.946Z,100633.81
2022-07-29T03:53:45.382Z,100638.63
2022-07-29T03:56:17.770Z,100635.22
2022-07-29T03:58:45.208Z,100637.63
2022-07-29T04:01:12.631Z,100634.53
2022-07-29T04:03:40.079Z,100642.94
2022-07-29T04:06:07.939Z,100642.03
2022-07-29T04:08:35.397Z,100641.22
2022-07-29T04:11:02.603Z,100633.66
2022-07-29T04:13:29.339Z,100622.78
2022-07-29T04:15:55.995Z,100626.63
2022-07-29T04:18:22.372Z,100633.03
2022-07-29T04:20:48.778Z,100628.50
2022-07-29T04:23:15.212Z,100627.34
2022-07-29T04:25:42.167Z,100627.84
2022-07-29T04:28:10.232Z,100630.78
2022-07-29T04:30:37.849Z,100629.59
2022-07-29T04:33:06.843Z,100628.38
2022-07-29T04:35:45.814Z,100633.09
2022-07-29T04:38:18.956Z,100630.16
2022-07-29T04:40:45.384Z,100625.50
2022-07-29T04:43:14.263Z,100637.91
2022-07-29T04:45:42.081Z,100637.59
2022-07-29T04:48:08.504Z,100636.84
2022-07-29T04:50:35.017Z,100640.88
2022-07-29T04:53:01.384Z,100631.63
2022-07-29T04:55:27.728Z,100639.53
2022-07-29T04:57:54.071Z,100625.38
2022-07-29T05:00:20.451Z,100642.25
2022-07-29T05:02:47.052Z,100629.44
2022-07-29T05:05:13.463Z,100631.84
2022-07-29T05:07:41.755Z,100633.44
2022-07-29T05:10:09.182Z,100631.66
2022-07-29T05:12:35.667Z,100624.22
2022-07-29T05:15:02.071Z,100630.56
2022-07-29T05:17:28.544Z,100631.72
2022-07-29T05:19:54.915Z,100634.16
2022-07-29T05:22:21.823Z,100623.72
2022-07-29T05:24:48.191Z,100620.28
2022-07-29T05:27:14.563Z,100628.75
2022-07-29T05:29:43.187Z,100627.66
2022-07-29T05:32:09.956Z,100632.84
2022-07-29T05:34:36.346Z,100626.00
2022-07-29T05:37:02.924Z,100633.56
2022-07-29T05:39:49.289Z,100624.84
2022-07-29T05:42:15.669Z,100632.28
2022-07-29T05:44:42.120Z,100626.28
2022-07-29T05:47:08.772Z,100632.69
2022-07-29T05:49:35.430Z,100628.13
2022-07-29T05:52:01.824Z,100629.91
2022-07-29T05:54:28.191Z,100633.50
2022-07-29T05:56:54.532Z,100628.13
2022-07-29T05:59:20.937Z,100628.31
2022-07-29T06:01:47.391Z,100634.00
2022-07-29T06:04:14.105Z,100625.84
2022-07-29T06:06:40.807Z,100635.63
2022-07-29T06:09:12.190Z,100634.72
2022-07-29T06:11:39.409Z,100638.16
2022-07-29T06:14:05.780Z,100641.72
2022-07-29T06:16:32.287Z,100641.94
2022-07-29T06:18:58.735Z,100642.94
2022-07-29T06:21:25.059Z,100639.81
2022-07-29T06:23:51.454Z,100634.53
2022-07-29T06:26:17.814Z,100641.81
2022-07-29T06:28:44.247Z,100643.84
2022-07-29T06:31:10.688Z,100645.00
2022-07-29T06:33:37.055Z,100650.16
2022-07-29T06:36:06.155Z,100658.97
2022-07-29T06:38:40.371Z,100658.72
2022-07-29T06:41:09.519Z,100654.22
2022-07-29T06:43:45.619Z,100651.84
2022-07-29T06:46:18.727Z,100656.09
2022-07-29T06:48:46.145Z,100643.47
2022-07-29T06:51:12.787Z,100637.91
2022-07-29T06:53:39.775Z,100640.72
2022-07-29T06:56:25.103Z,100641.91
2022-07-29T06:58:51.532Z,100642.34
2022-07-29T07:01:17.946Z,100648.78
2022-07-29T07:03:44.383Z,100635.28
2022-07-29T07:06:14.840Z,100644.97
2022-07-29T07:08:41.582Z,100640.00
2022-07-29T07:11:08.003Z,100639.19
2022-07-29T07:13:34.344Z,100645.69
2022-07-29T07:16:04.020Z,100646.81
2022-07-29T07:18:30.821Z,100646.97
2022-07-29T07:20:58.007Z,100649.56
2022-07-29T07:23:24.438Z,100651.66
2022-07-29T07:25:50.816Z,100644.09
2022-07-29T07:28:17.172Z,100647.97
2022-07-29T07:30:43.752Z,100653.28
2022-07-29T07:33:10.216Z,100650.06
2022-07-29T07:35:36.567Z,100644.28
2022-07-29T07:38:02.933Z,100649.41
2022-07-29T07:40:29.278Z,100649.41
2022-07-29T07:42:55.651Z,100651.44
2022-07-29T07:45:21.971Z,100652.19
2022-07-29T07:47:48.402Z,100653.53
2022-07-29T07:50:18.708Z,100647.88
2022-07-29T07:52:54.246Z,100647.44
2022-07-29T07:55:20.816Z,100640.50
2022-07-29T07:57:47.398Z,100642.63
2022-07-29T08:00:15.775Z,100647.78
2022-07-29T08:02:42.299Z,100647.59
2022-07-29T08:05:12.598Z,100654.19
2022-07-29T08:07:39.758Z,100661.78
2022-07-29T08:10:06.597Z,100655.78
2022-07-29T08:12:33.022Z,100658.00
2022-07-29T08:14:59.408Z,100646.09
2022-07-29T08:17:25.754Z,100655.44
2022-07-29T08:19:52.106Z,100649.69
2022-07-29T08:22:18.523Z,100651.72
2022-07-29T08:24:44.946Z,100647.84
2022-07-29T08:27:33.489Z,100646.16
2022-07-29T08:29:58.441Z,100654.41
2022-07-29T08:32:43.765Z,100649.56
2022-07-29T08:35:11.273Z,100656.78
2022-07-29T08:37:37.752Z,100657.50
2022-07-29T08:40:04.519Z,100659.22
2022-07-29T08:42:31.413Z,100653.38
2022-07-29T08:44:58.811Z,100660.78
2022-07-29T08:47:26.541Z,100654.41
2022-07-29T08:49:52.997Z,100654.72
2022-07-29T08:52:20.977Z,100655.53
2022-07-29T08:54:48.436Z,100660.06
2022-07-29T08:57:15.083Z,100663.41
2022-07-29T08:59:43.619Z,100658.34
2022-07-29T09:02:22.495Z,100660.13
2022-07-29T09:04:49.832Z,100647.19
2022-07-29T09:07:17.949Z,100658.19
2022-07-29T09:09:44.639Z,100656.47
2022-07-29T09:12:11.610Z,100659.38
2022-07-29T09:14:39.142Z,100655.31
2022-07-29T09:17:06.063Z,100645.81
2022-07-29T09:19:37.430Z,100644.84
2022-07-29T09:22:07.074Z,100641.66
2022-07-29T09:24:43.547Z,100645.63
2022-07-29T09:27:22.255Z,100641.94
2022-07-29T09:30:06.339Z,100634.88
2022-07-29T09:32:34.305Z,100627.91
2022-07-29T09:35:18.899Z,100632.56
2022-07-29T09:37:45.755Z,100630.19
2022-07-29T09:40:17.635Z,100620.00
2022-07-29T09:42:45.115Z,100618.75
2022-07-29T09:45:12.066Z,100619.81
2022-07-29T09:47:48.558Z,100613.47
2022-07-29T09:50:15.200Z,100617.03
2022-07-29T09:52:50.603Z,100619.03
2022-07-29T09:55:19.828Z,100617.84
2022-07-29T09:57:47.684Z,100613.84
2022-07-29T10:00:18.187Z,100619.84
2022-07-29T10:02:47.058Z,100611.09
2022-07-29T10:05:23.376Z,100611.47
2022-07-29T10:07:57.178Z,100616.63
2022-07-29T10:10:24.035Z,100623.44
2022-07-29T10:12:56.915Z,100615.84
2022-07-29T10:15:25.888Z,100622.63
2022-07-29T10:17:53.563Z,100615.44
2022-07-29T10:20:21.594Z,100620.50
2022-07-29T10:22:53.950Z,100611.88
2022-07-29T10:25:21.425Z,100610.19
2022-07-29T10:27:48.903Z,100607.81
2022-07-29T10:30:16.739Z,100605.50
2022-07-29T10:33:04.777Z,100606.72
2022-07-29T10:36:14.342Z,100606.31
2022-07-29T10:39:03.247Z,100601.16
2022-07-29T10:41:53.575Z,100599.16
2022-07-29T10:44:23.026Z,100603.56
2022-07-29T10:46:51.415Z,100601.16
2022-07-29T10:49:20.095Z,100604.69
2022-07-29T10:52:10.720Z,100599.84
2022-07-29T10:54:37.686Z,100602.66
2022-07-29T10:57:21.595Z,100605.41
2022-07-29T11:00:01.408Z,100599.94
2022-07-29T11:02:42.603Z,100590.44
2022-07-29T11:05:14.736Z,100593.63
2022-07-29T11:08:19.993Z,100594.09
2022-07-29T11:10:51.555Z,100594.41
2022-07-29T11:13:47.290Z,100597.16
2022-07-29T11:16:16.623Z,100601.81
2022-07-29T11:19:11.272Z,100590.06
2022-07-29T11:22:00.316Z,100597.56
2022-07-29T11:24:30.257Z,100597.97
2022-07-29T11:27:10.981Z,100592.78
2022-07-29T11:29:48.438Z,100601.03
2022-07-29T11:35:36.734Z,100594.97
2022-07-29T11:38:23.479Z,100593.66
2022-07-29T11:41:08.370Z,100589.63
2022-07-29T11:43:51.948Z,100594.09
2022-07-29T11:46:47.843Z,100600.50
2022-07-29T11:49:14.623Z,100585.41
2022-07-29T11:54:57.182Z,100596.38
2022-07-29T11:57:22.122Z,100603.16
2022-07-29T11:59:48.633Z,100591.88
2022-07-29T12:02:37.049Z,100599.06
2022-07-29T12:05:01.899Z,100595.16
2022-07-29T12:07:01.471Z,100591.03
2022-07-29T12:07:38.250Z,100588.78
2022-07-29T12:10:07.598Z,100584.84
2022-07-29T12:12:38.110Z,100592.00
2022-07-29T12:15:15.696Z,100590.06
2022-07-29T12:17:42.333Z,100592.41
2022-07-29T12:20:08.924Z,100590.44
2022-07-29T12:22:40.791Z,100581.94
2022-07-29T12:25:32.312Z,100594.09
2022-07-29T12:28:01.133Z,100591.91
2022-07-29T12:30:48.084Z,100589.41
2022-07-29T12:33:17.401Z,100592.75
2022-07-29T12:35:58.098Z,100600.59
2022-07-29T12:38:30.479Z,100601.19
2022-07-29T12:40:57.004Z,100594.25
2022-07-29T12:43:25.529Z,100589.13
2022-07-29T12:45:54.471Z,100585.25
2022-07-29T12:48:41.400Z,100579.56
2022-07-29T12:51:09.019Z,100588.59
2022-07-29T12:53:36.185Z,100585.56
2022-07-29T12:56:15.570Z,100576.69
2022-07-29T12:58:51.389Z,100573.63
2022-07-29T13:01:19.681Z,100565.50
2022-07-29T13:03:57.186Z,100567.19
2022-07-29T13:06:32.370Z,100574.50
2022-07-29T13:09:06.413Z,100569.75
2022-07-29T13:11:45.301Z,100579.31
2022-07-29T13:14:35.724Z,100573.34
2022-07-29T13:17:10.040Z,100569.75
2022-07-29T13:19:45.101Z,100576.06
2022-07-29T13:22:16.412Z,100563.78
2022-07-29T13:24:48.498Z,100567.38
2022-07-29T13:27:18.906Z,100565.00
2022-07-29T13:29:45.614Z,100564.94
2022-07-29T13:32:12.675Z,100558.53
2022-07-29T13:34:38.994Z,100550.91
2022-07-29T13:37:05.370Z,100555.56
2022-07-29T13:39:31.840Z,100556.19
2022-07-29T13:41:58.528Z,100551.09
2022-07-29T13:44:26.712Z,100555.44
2022-07-29T13:46:53.047Z,100562.59
2022-07-29T13:49:19.413Z,100570.47
2022-07-29T13:51:45.774Z,100559.34
2022-07-29T13:54:12.141Z,100561.00
2022-07-29T13:56:38.478Z,100556.28
2022-07-29T13:59:04.875Z,100553.88
2022-07-29T14:01:31.374Z,100561.78
2022-07-29T14:03:57.805Z,100558.25
2022-07-29T14:06:24.175Z,100557.03
2022-07-29T14:08:50.516Z,100559.44
2022-07-29T14:11:16.884Z,100557.06
2022-07-29T14:13:43.223Z,100559.44
2022-07-29T14:16:09.611Z,100564.22
2022-07-29T14:18:35.943Z,100557.03
2022-07-29T14:21:02.736Z,100557.78
2022-07-29T14:23:29.094Z,100556.25
2022-07-29T14:25:55.494Z,100557.78
2022-07-29T14:28:22.397Z,100556.25
2022-07-29T14:30:48.752Z,100560.19
2022-07-29T14:33:15.111Z,100548.63
2022-07-29T14:35:41.459Z,100552.63
2022-07-29T14:38:07.940Z,100544.69
2022-07-29T14:40:34.404Z,100545.94
2022-07-29T14:43:00.740Z,100552.28
2022-07-29T14:45:27.112Z,100541.13
2022-07-29T14:47:57.268Z,100544.28
2022-07-29T14:50:31.617Z,100542.63
2022-07-29T14:52:58.503Z,100543.97
2022-07-29T14:55:24.825Z,100547.09
2022-07-29T14:57:51.158Z,100552.50
2022-07-29T15:00:18.380Z,100557.97
2022-07-29T15:03:02.407Z,100560.28
2022-07-29T15:05:30.103Z,100553.09
2022-07-29T15:07:56.572Z,100558.38
2022-07-29T15:10:24.729Z,100553.03
2022-07-29T15:12:51.103Z,100558.09
2022-07-29T15:15:17.437Z,100558.09
2022-07-29T15:17:43.770Z,100554.50
2022-07-29T15:20:10.606Z,100555.66
2022-07-29T15:22:36.929Z,100561.16
2022-07-29T15:25:03.384Z,100559.06
2022-07-29T15:27:29.776Z,100559.69
2022-07-29T15:29:56.132Z,100556.59
2022-07-29T15:32:22.455Z,100560.47
2022-07-29T15:34:48.791Z,100561.94
2022-07-29T15:37:15.132Z,100551.19
2022-07-29T15:39:41.486Z,100562.97
2022-07-29T15:42:07.868Z,100556.94
2022-07-29T15:44:34.913Z,100560.88
2022-07-29T15:47:01.917Z,100554.47
2022-07-29T15:49:28.915Z,100558.03
2022-07-29T15:52:13.100Z,100553.91
2022-07-29T15:54:40.332Z,100552.97
2022-07-29T15:57:07.511Z,100556.00
2022-07-29T15:59:34.231Z,100545.69
2022-07-29T16:02:01.701Z,100555.97
2022-07-29T16:04:28.306Z,100543.91
2022-07-29T16:06:55.271Z,100545.69
2022-07-29T16:09:21.827Z,100549.13
2022-07-29T16:11:48.283Z,100555.59
2022-07-29T16:14:14.790Z,100546.88
2022-07-29T16:16:41.234Z,100553.19
2022-07-29T16:19:08.556Z,100550.78
2022-07-29T16:21:35.409Z,100548.63
2022-07-29T16:24:02.671Z,100549.66
2022-07-29T16:26:29.121Z,100548.50
2022-07-29T16:28:55.987Z,100556.78
2022-07-29T16:31:23.057Z,100557.66
2022-07-29T16:33:54.390Z,100550.50
2022-07-29T16:36:22.883Z,100558.38
2022-07-29T16:38:49.954Z,100550.44
2022-07-29T16:41:16.512Z,100558.50
2022-07-29T16:43:42.981Z,100556.09
2022-07-29T16:46:14.034Z,100560.81
2022-07-29T16:48:45.618Z,100563.47
2022-07-29T16:51:14.363Z,100560.41
2022-07-29T16:53:41.314Z,100564.19
2022-07-29T16:56:08.489Z,100563.19
2022-07-29T16:58:41.758Z,100566.50
2022-07-29T17:01:10.126Z,100560.81
2022-07-29T17:03:36.521Z,100558.94
2022-07-29T17:06:02.905Z,100570.00
2022-07-29T17:08:29.249Z,100567.09
2022-07-29T17:10:55.569Z,100574.63
2022-07-29T17:13:21.902Z,100567.09
2022-07-29T17:15:48.335Z,100564.94
2022-07-29T17:18:14.760Z,100557.84
2022-07-29T17:20:42.123Z,100564.53
2022-07-29T17:23:08.616Z,100557.22
2022-07-29T17:25:35.068Z,100555.56
2022-07-29T17:28:01.561Z,100562.44
2022-07-29T17:30:28.733Z,100566.69
2022-07-29T17:32:55.109Z,100560.19
2022-07-29T17:35:21.443Z,100562.91
2022-07-29T17:37:47.775Z,100558.69
2022-07-29T17:40:14.096Z,100568.38
2022-07-29T17:42:40.434Z,100569.47
2022-07-29T17:45:07.432Z,100568.13
2022-07-29T17:47:33.750Z,100556.25
2022-07-29T17:50:00.162Z,100554.56
2022-07-29T17:52:26.501Z,100562.38
2022-07-29T17:54:52.818Z,100560.06
2022-07-29T17:57:19.151Z,100562.13
2022-07-29T17:59:45.497Z,100560.50
2022-07-29T18:02:11.887Z,100556.50
2022-07-29T18:04:38.461Z,100546.69
2022-07-29T18:07:04.782Z,100556.88
2022-07-29T18:09:31.134Z,100543.03
2022-07-29T18:11:57.478Z,100557.50
2022-07-29T18:14:23.822Z,100545.94
2022-07-29T18:16:50.233Z,100562.69
2022-07-29T18:19:16.598Z,100558.88
2022-07-29T18:21:51.926Z,100567.28
2022-07-29T18:24:21.202Z,100580.81
2022-07-29T18:26:47.553Z,100579.63
2022-07-29T18:29:13.908Z,100590.69
2022-07-29T18:31:40.287Z,100604.16
2022-07-29T18:34:06.682Z,100607.53
2022-07-29T18:36:33.019Z,100606.72
2022-07-29T18:38:59.369Z,100608.16
2022-07-29T18:41:25.714Z,100612.28
2022-07-29T18:43:52.040Z,100615.31
2022-07-29T18:46:18.460Z,100630.56
2022-07-29T18:48:44.859Z,100647.56
2022-07-29T18:51:11.206Z,100654.78
2022-07-29T18:53:37.661Z,100662.34
2022-07-29T18:56:04.206Z,100668.97
2022-07-29T18:58:30.558Z,100674.13
2022-07-29T19:00:56.874Z,100674.59
2022-07-29T19:03:23.201Z,100679.41
2022-07-29T19:05:49.649Z,100677.16
2022-07-29T19:08:15.985Z,100681.25
2022-07-29T19:10:42.345Z,100684.47
2022-07-29T19:13:08.803Z,100681.25
2022-07-29T19:15:36.708Z,100681.25
2022-07-29T19:18:03.231Z,100681.69
2022-07-29T19:20:29.563Z,100682.63
2022-07-29T19:22:55.944Z,100686.06
2022-07-29T19:25:22.422Z,100686.97
2022-07-29T19:27:48.752Z,100682.72
2022-07-29T19:30:15.193Z,100678.28
2022-07-29T19:32:41.762Z,100681.16
2022-07-29T19:35:08.220Z,100686.22
2022-07-29T19:37:34.555Z,100687.13
2022-07-29T19:40:00.881Z,100682.84
2022-07-29T19:42:27.197Z,100674.56
2022-07-29T19:44:53.649Z,100671.16
2022-07-29T19:47:19.965Z,100670.25
2022-07-29T19:49:46.308Z,100668.47
2022-07-29T19:52:12.635Z,100673.41
2022-07-29T19:54:38.977Z,100679.66
2022-07-29T19:57:05.341Z,100682.00
2022-07-29T19:59:31.663Z,100678.84
2022-07-29T20:01:58.048Z,100679.78
2022-07-29T20:04:24.420Z,100685.06
2022-07-29T20:06:50.778Z,100686.44
2022-07-29T20:09:20.549Z,100690.22
2022-07-29T20:11:47.225Z,100689.13
2022-07-29T20:14:13.645Z,100691.78
2022-07-29T20:16:39.974Z,100695.41
2022-07-29T20:19:06.318Z,100694.09
2022-07-29T20:21:32.655Z,100698.63
2022-07-29T20:23:59.232Z,100699.66
2022-07-29T20:26:25.556Z,100702.00
2022-07-29T20:28:51.955Z,100705.34
2022-07-29T20:31:18.332Z,100699.53
2022-07-29T20:33:45.013Z,100710.13
2022-07-29T20:36:11.420Z,100728.34
2022-07-29T20:38:37.828Z,100725.22
2022-07-29T20:41:04.379Z,100724.81
2022-07-29T20:43:30.704Z,100725.66
2022-07-29T20:46:03.033Z,100727.75
2022-07-29T20:48:29.403Z,100733.03
2022-07-29T20:50:55.807Z,100720.38
2022-07-29T20:53:22.899Z,100733.31
2022-07-29T20:55:49.342Z,100739.28
2022-07-29T20:58:15.691Z,100751.38
2022-07-29T21:00:42.022Z,100750.53
2022-07-29T21:03:08.436Z,100745.34
2022-07-29T21:05:36.818Z,100743.59
2022-07-29T21:08:03.803Z,100749.94
2022-07-29T21:10:30.155Z,100750.25
2022-07-29T21:12:56.503Z,100743.16
2022-07-29T21:15:22.914Z,100752.66
2022-07-29T21:17:49.242Z,100755.44
2022-07-29T21:20:17.247Z,100755.44
2022-07-29T21:22:44.519Z,100738.59
2022-07-29T21:25:11.695Z,100747.88
2022-07-29T21:27:38.394Z,100744.47
2022-07-29T21:30:06.896Z,100737.31
2022-07-29T21:32:33.313Z,100738.47
2022-07-29T21:34:59.744Z,100732.31
2022-07-29T21:37:26.145Z,100723.63
2022-07-29T21:39:52.480Z,100728.88
2022-07-29T21:42:18.871Z,100728.69
2022-07-29T21:44:45.337Z,100733.72
2022-07-29T21:47:11.801Z,100731.09
2022-07-29T21:49:38.282Z,100733.84
2022-07-29T21:52:05.613Z,100731.03
2022-07-29T21:54:34.314Z,100724.41
2022-07-29T21:57:00.643Z,100719.25
2022-07-29T21:59:27.418Z,100716.78
2022-07-29T22:01:53.788Z,100727.97
2022-07-29T22:04:20.516Z,100729.81
2022-07-29T22:06:46.924Z,100724.00
2022-07-29T22:09:13.319Z,100725.16
2022-07-29T22:11:39.751Z,100735.09
2022-07-29T22:14:06.089Z,100735.97
2022-07-29T22:16:32.484Z,100731.50
2022-07-29T22:18:58.880Z,100735.78
2022-07-29T22:21:25.320Z,100726.69
2022-07-29T22:23:51.650Z,100733.31
2022-07-29T22:26:18.007Z,100727.88
2022-07-29T22:28:44.338Z,100725.28
2022-07-29T22:31:10.760Z,100721.81
2022-07-29T22:33:37.202Z,100720.66
2022-07-29T22:36:03.758Z,100725.97
2022-07-29T22:38:30.163Z,100715.84
2022-07-29T22:41:00.485Z,100709.88
2022-07-29T22:43:27.765Z,100724.91
2022-07-29T22:45:54.140Z,100723.06
2022-07-29T22:48:20.522Z,100719.22
2022-07-29T22:50:46.886Z,100724.22
2022-07-29T22:53:13.250Z,100715.56
2022-07-29T22:55:39.647Z,100723.81
2022-07-29T22:58:06.057Z,100733.22
2022-07-29T23:00:32.528Z,100726.75
2022-07-29T23:02:58.910Z,100724.53
2022-07-29T23:05:25.309Z,100716.44
2022-07-29T23:07:51.700Z,100719.94
2022-07-29T23:10:18.118Z,100723.16
2022-07-29T23:12:44.454Z,100724.53
2022-07-29T23:15:10.808Z,100717.63
2022-07-29T23:17:37.181Z,100716.22
2022-07-29T23:20:08.231Z,100719.47
2022-07-29T23:22:36.284Z,100715.59
2022-07-29T23:25:03.724Z,100713.91
2022-07-29T23:27:30.121Z,100707.81
2022-07-29T23:29:56.447Z,100708.13
2022-07-29T23:32:22.798Z,100704.91
2022-07-29T23:34:49.142Z,100698.63
2022-07-29T23:37:15.470Z,100696.19
2022-07-29T23:39:41.956Z,100704.69
2022-07-29T23:42:09.383Z,100698.59
2022-07-29T23:44:35.718Z,100695.56
2022-07-29T23:47:02.600Z,100691.25
2022-07-29T23:49:29.116Z,100695.97
2022-07-29T23:51:55.491Z,100694.53
2022-07-29T23:54:21.822Z,100694.25
2022-07-29T23:56:48.166Z,100701.72
2022-07-29T23:59:14.490Z,100689.94
